Taylor Fork

This weather station provides wind speed, gust or max wind speed, and wind direction at 9460 ft. near Pika Point above Sunlight Basin.  

This data can be used with temperature and precipitation data from the Carrot Basin SNOTEL site. If the data below is not displayed or up to date, view data here.

This weather station was purchased by the Friends of the Avalanche Center.

Elevation
9460ft
Jump to table bottom
Date Time Temperature
deg F
RH, % Wind Speed Wind Gust Wind Direction
12/18/18 07:00 19.2 94 15 27 S - 198
12/18/18 06:00 19.4 94 16 27 SW - 209
12/18/18 05:00 19.2 94 19 31 SW - 215
12/18/18 04:00 19.3 94 18 32 S - 202
12/18/18 03:00 19.3 93 19 35 SW - 206
12/18/18 02:00 20.2 94 17 31 SW - 215
12/18/18 01:00 20.7 94 14 27 SW - 226
12/18/18 00:00 20.4 94 13 21 SW - 229
12/17/18 23:00 20.4 93 11 20 S - 199
12/17/18 22:00 19.8 93 13 22 S - 184
12/17/18 21:00 20.4 93 14 26 S - 185
12/17/18 20:00 20.9 93 16 26 S - 199
12/17/18 19:00 20.6 92 16 26 S - 199
12/17/18 18:00 20.4 89 14 25 S - 178
12/17/18 17:00 22.0 84 16 26 S - 188
12/17/18 16:00 23.1 80 17 28 SW - 230
12/17/18 15:00 23.8 76 18 34 SW - 213
12/17/18 14:00 24.3 75 19 30 SW - 209
12/17/18 13:00 24.7 72 21 34 SW - 206
12/17/18 12:00 25.5 70 19 30 S - 199
12/17/18 11:00 24.1 71 21 29 S - 180
12/17/18 10:00 22.7 71 17 28 S - 191
12/17/18 09:00 22.1 71 19 25 S - 185
12/17/18 08:00 23.4 67 17 26 S - 198
12/17/18 07:00 23.9 66 19 26 S - 190
12/17/18 06:00 22.4 69 18 26 S - 191
12/17/18 05:00 23.8 65 18 28 S - 195
12/17/18 04:00 23.6 65 18 27 S - 197
12/17/18 03:00 24.8 63 18 27 SW - 208
12/17/18 02:00 26.1 60 19 32 SW - 220
12/17/18 01:00 26.6 58 19 32 SW - 222
12/17/18 00:00 25.4 60 18 31 SW - 225
12/16/18 23:00 25.4 58 15 28 SW - 208
12/16/18 22:00 23.9 59 15 26 SW - 206
12/16/18 21:00 23.8 59 19 26 S - 191
12/16/18 20:00 24.3 56 16 26 S - 195
12/16/18 19:00 23.5 57 22 30 S - 166
12/16/18 18:00 22.9 61 22 28 S - 173
12/16/18 17:00 25.7 57 20 28 S - 178
12/16/18 16:00 26.2 57 20 27 S - 180
12/16/18 15:00 27.6 49 21 31 S - 187
12/16/18 14:00 25.6 57 21 27 S - 170
12/16/18 13:00 24.9 59 21 26 S - 174
12/16/18 12:00 24.0 64 22 28 S - 177
12/16/18 11:00 21.0 72 20 26 S - 178
12/16/18 10:00 20.9 71 21 30 S - 175
12/16/18 09:00 20.4 81 19 25 S - 181
12/16/18 08:00 20.5 83 21 31 S - 180
12/16/18 07:00 20.9 86 21 32 S - 198
12/16/18 06:00 20.7 86 22 32 S - 190